Aviation Digital Data Service (ADDS)

Output produced by METARs form (0545 UTC 19 March 2019)
found at http://www.aviationweather.gov/metar/data/
 
Forecast for: SBRF (RECIFE/GUARARAPE, BR)
Text: TAF SBRF 182200Z 1900/1924 13009KT 9999 SCT022 TN27/1902Z TX30/1915Z
Forecast period: 0000 UTC 19 March 2019 to 0000 UTC 20 March 2019
Forecast type: FROM: standard forecast or significant change
Winds: from the SE (130 degrees) at 10 MPH (9 knots; 4.6 m/s)
Visibility: 6 or more miles 10+ km)
Ceiling: at least 12,000 feet AGL
Clouds: scattered clouds at 2200 feet AGL
Weather: no significant weather forecast for this period
Text: TEMPO 1914/1918 SCT023 FEW025TCU RMK PEQ
Forecast period: 1400 to 1800 UTC 19 March 2019
Forecast type: TEMPORARY: The following changes expected for less than half the time period
Visibility: missing
Ceiling: at least 12,000 feet AGL
Clouds: scattered clouds at 2300 feet AGL
few clouds at 2500 feet AGL
Weather: no significant weather forecast for this period